Time;durP1;ratioP1;P1;durP2;ratioP2;P2;SDS_P1;SDS_P2;PMS_P1;PMS_P2;Temp;Humidity;BMP_temperature;BMP_pressure;BME280_temperature;BME280_humidity;BME280_pressure;Samples;Min_cycle;Max_cycle;Signal;HPM_P1;HPM_P2
2022/07/18 00:01:13;;;;;;;9.13;4.47;;;23.30;83.80;;;;;;4832601;29;20057;-79
2022/07/18 00:03:41;;;;;;;7.75;4.30;;;23.10;84.30;;;;;;4846693;29;20046;-80
2022/07/18 00:06:08;;;;;;;7.03;4.00;;;23.20;84.80;;;;;;4847377;29;20139;-77
2022/07/18 00:08:36;;;;;;;9.98;4.43;;;23.40;86.30;;;;;;4833786;29;20073;-79
2022/07/18 00:11:03;;;;;;;5.82;3.83;;;23.30;85.10;;;;;;4849102;29;20042;-81
2022/07/18 00:13:31;;;;;;;10.75;4.13;;;23.30;86.20;;;;;;4847361;29;20132;-82
2022/07/18 00:15:59;;;;;;;7.95;4.15;;;23.20;85.30;;;;;;4834120;29;20454;-81
2022/07/18 00:19:06;;;;;;;6.55;4.47;;;23.10;85.10;;;;;;4847530;29;20053;-79
2022/07/18 00:21:34;;;;;;;5.95;3.67;;;23.30;84.30;;;;;;4847520;29;20045;-79
2022/07/18 00:24:02;;;;;;;8.38;3.42;;;23.20;85.40;;;;;;4847200;29;20053;-81
2022/07/18 00:26:30;;;;;;;8.02;3.88;;;22.90;85.60;;;;;;4835302;29;20140;-80
2022/07/18 00:28:57;;;;;;;9.82;4.20;;;22.80;87.00;;;;;;4852357;29;20231;-82
2022/07/18 00:31:28;;;;;;;7.65;3.63;;;22.60;87.60;;;;;;4851708;29;20415;-80
2022/07/18 00:33:56;;;;;;;5.60;3.88;;;22.70;88.50;;;;;;4851126;29;20064;-81
2022/07/18 00:36:24;;;;;;;6.90;3.80;;;22.50;87.00;;;;;;4853146;29;20049;-79
2022/07/18 00:38:52;;;;;;;8.93;4.47;;;22.70;86.40;;;;;;4856832;29;20049;-83
2022/07/18 00:41:20;;;;;;;8.38;4.35;;;22.40;87.10;;;;;;4836685;29;20406;-80
2022/07/18 00:43:50;;;;;;;8.07;4.15;;;22.40;89.60;;;;;;4851927;29;20053;-84
2022/07/18 00:46:25;;;;;;;5.90;3.75;;;22.30;88.50;;;;;;4839032;29;20050;-82
2022/07/18 00:48:53;;;;;;;10.02;3.78;;;22.40;88.50;;;;;;4851823;29;20053;-77
2022/07/18 00:51:21;;;;;;;7.80;3.95;;;22.80;89.20;;;;;;4852576;29;20058;-82
2022/07/18 00:53:49;;;;;;;9.05;4.50;;;22.60;86.90;;;;;;4835212;29;20058;-78
2022/07/18 00:56:22;;;;;;;9.63;4.32;;;22.80;90.10;;;;;;4835832;29;20570;-81
2022/07/18 00:59:11;;;;;;;7.95;4.13;;;22.80;90.10;;;;;;4836694;29;20049;-78
2022/07/18 01:01:48;;;;;;;6.50;3.60;;;22.60;90.10;;;;;;4851510;29;20064;-81
2022/07/18 01:04:21;;;;;;;6.72;4.45;;;22.50;89.10;;;;;;4848976;29;20129;-80
2022/07/18 01:06:50;;;;;;;8.00;3.60;;;22.60;89.80;;;;;;4852349;29;20057;-81
2022/07/18 01:09:18;;;;;;;7.95;4.15;;;22.20;88.70;;;;;;4858371;29;20144;-80
2022/07/18 01:11:47;;;;;;;6.75;3.90;;;22.40;90.30;;;;;;4860964;29;20062;-82
2022/07/18 01:14:15;;;;;;;7.20;3.80;;;22.40;91.10;;;;;;4862043;29;20054;-80
2022/07/18 01:16:43;;;;;;;6.35;3.70;;;22.50;91.50;;;;;;4845342;29;20450;-82
2022/07/18 01:19:10;;;;;;;6.85;4.18;;;22.20;90.80;;;;;;4861764;29;20413;-80
2022/07/18 01:21:39;;;;;;;8.43;4.30;;;22.20;92.20;;;;;;4861732;29;20064;-81
2022/07/18 01:24:06;;;;;;;6.40;4.10;;;22.20;92.30;;;;;;4860224;29;20057;-81
2022/07/18 01:26:36;;;;;;;6.28;4.05;;;22.40;91.30;;;;;;4861554;29;20459;-81
2022/07/18 01:29:03;;;;;;;8.10;4.25;;;22.40;90.90;;;;;;4847627;29;20058;-81
2022/07/18 01:31:33;;;;;;;7.60;4.05;;;22.40;91.90;;;;;;4837888;29;20085;-82
2022/07/18 01:34:01;;;;;;;13.47;4.23;;;22.30;92.20;;;;;;4859895;29;20053;-78
2022/07/18 01:36:28;;;;;;;7.45;4.45;;;22.20;91.60;;;;;;4859487;29;20300;-82
2022/07/18 01:38:56;;;;;;;5.43;3.83;;;22.10;93.00;;;;;;4861123;29;20478;-80
2022/07/18 01:41:24;;;;;;;8.48;4.00;;;22.10;93.40;;;;;;4861528;29;20053;-83
2022/07/18 01:43:51;;;;;;;7.88;4.88;;;22.00;92.80;;;;;;4844726;29;20050;-82
2022/07/18 01:46:19;;;;;;;6.43;4.40;;;22.10;93.10;;;;;;4837338;29;20062;-83
2022/07/18 01:48:48;;;;;;;7.68;4.70;;;22.00;93.60;;;;;;4811726;29;20560;-81
2022/07/18 01:54:29;;;;;;;6.38;3.90;;;22.00;93.90;;;;;;4906238;24;20057;-79
2022/07/18 01:56:58;;;;;;;5.38;3.80;;;22.10;93.50;;;;;;4787070;30;20062;-79
2022/07/18 01:59:29;;;;;;;7.72;4.50;;;21.90;92.90;;;;;;4787656;29;20104;-83
2022/07/18 02:02:20;;;;;;;7.93;4.30;;;21.80;93.20;;;;;;4780630;30;20522;-81
2022/07/18 02:04:59;;;;;;;9.95;4.18;;;21.80;93.60;;;;;;4772614;30;20081;-82
2022/07/18 02:07:35;;;;;;;8.33;4.67;;;22.00;93.40;;;;;;4786994;30;20078;-83
2022/07/18 02:10:16;;;;;;;7.00;4.38;;;22.00;92.80;;;;;;4787337;30;20063;-83
2022/07/18 02:12:44;;;;;;;8.27;4.60;;;22.10;92.60;;;;;;4787924;30;20047;-81
2022/07/18 02:16:07;;;;;;;7.68;4.15;;;22.10;92.50;;;;;;4786918;29;20112;-83
2022/07/18 02:18:35;;;;;;;7.00;4.53;;;22.00;92.60;;;;;;4784918;29;20404;-81
2022/07/18 02:21:33;;;;;;;7.63;3.78;;;22.00;91.80;;;;;;4787162;30;20053;-81
2022/07/18 02:24:00;;;;;;;6.40;3.50;;;22.00;93.60;;;;;;4787620;29;20519;-81
2022/07/18 02:26:28;;;;;;;6.38;3.97;;;22.00;93.50;;;;;;4786709;30;20382;-79
2022/07/18 02:33:13;;;;;;;6.97;4.38;;;21.40;93.70;;;;;;4794075;24;20116;-83
2022/07/18 02:35:42;;;;;;;8.50;4.03;;;20.80;94.60;;;;;;4786738;30;20055;-81
2022/07/18 02:42:10;;;;;;;10.00;4.55;;;21.00;93.20;;;;;;5038773;24;20058;-82
2022/07/18 02:44:37;;;;;;;9.05;3.97;;;21.80;94.50;;;;;;4793513;24;20059;-80
2022/07/18 02:47:08;;;;;;;;;;;21.70;92.80;;;;;;4767889;30;20087;-78
2022/07/18 02:53:59;;;;;;;9.32;5.10;;;22.00;93.80;;;;;;4767133;30;20101;-83
2022/07/18 02:56:27;;;;;;;7.38;4.20;;;21.70;92.20;;;;;;4765591;30;20065;-80
2022/07/18 02:58:54;;;;;;;10.63;5.20;;;21.40;92.30;;;;;;4765214;30;20083;-84
2022/07/18 03:01:22;;;;;;;9.77;4.20;;;21.00;92.90;;;;;;4765200;30;20064;-81
2022/07/18 03:07:59;;;;;;;6.47;3.75;;;21.10;94.40;;;;;;4713568;30;20061;-80
2022/07/18 03:10:26;;;;;;;7.43;3.53;;;21.20;93.20;;;;;;4713992;30;20144;-81
2022/07/18 03:12:54;;;;;;;7.05;3.63;;;21.50;92.00;;;;;;4713694;30;20068;-79
2022/07/18 03:15:21;;;;;;;8.10;3.83;;;21.60;91.60;;;;;;4713889;30;20460;-80
2022/07/18 03:17:49;;;;;;;6.32;3.67;;;21.30;91.40;;;;;;4718840;30;20061;-78
2022/07/18 03:20:16;;;;;;;8.02;4.20;;;21.60;91.50;;;;;;4764649;30;20059;-82
2022/07/18 03:22:43;;;;;;;8.40;4.43;;;22.00;93.70;;;;;;4764851;30;20485;-80
2022/07/18 03:25:11;;;;;;;10.30;4.45;;;22.00;94.40;;;;;;4765284;30;20104;-80
2022/07/18 03:27:42;;;;;;;6.65;3.97;;;21.80;94.20;;;;;;4736199;30;20466;-81
2022/07/18 03:30:11;;;;;;;7.97;3.72;;;21.80;91.70;;;;;;4749925;30;20059;-82
2022/07/18 03:32:38;;;;;;;8.68;4.20;;;21.90;91.40;;;;;;4764660;30;20060;-81
2022/07/18 03:35:06;;;;;;;9.30;3.88;;;21.80;93.40;;;;;;4765020;30;20055;-78
2022/07/18 03:37:36;;;;;;;6.63;4.13;;;21.50;94.90;;;;;;4750869;30;20063;-81
2022/07/18 03:44:18;;;;;;;8.25;3.50;;;21.30;96.40;;;;;;4748847;30;20127;-82
2022/07/18 03:59:54;;;;;;;5.28;3.40;;;21.50;92.00;;;;;;4795734;29;20466;-82
2022/07/18 04:02:22;;;;;;;9.32;3.10;;;21.60;88.10;;;;;;4768582;30;20131;-80
2022/07/18 04:04:50;;;;;;;5.30;2.97;;;21.30;87.70;;;;;;4782722;30;20493;-82
2022/07/18 04:12:18;;;;;;;12.32;5.40;;;22.00;92.50;;;;;;4748772;30;20516;-83
2022/07/18 04:18:25;;;;;;;13.68;4.53;;;21.80;93.80;;;;;;4767039;30;20070;-82
2022/07/18 04:20:56;;;;;;;8.15;4.70;;;21.70;94.50;;;;;;4752613;30;20083;-82
2022/07/18 04:23:24;;;;;;;10.55;4.85;;;21.70;96.60;;;;;;4767055;30;20052;-79
2022/07/18 04:25:52;;;;;;;9.88;5.28;;;21.70;96.20;;;;;;4768440;30;20509;-82
2022/07/18 04:28:20;;;;;;;13.18;6.63;;;21.90;95.70;;;;;;4767255;30;20075;-82
2022/07/18 04:35:02;;;;;;;6.88;4.45;;;22.20;95.90;;;;;;4792918;24;20054;-83
2022/07/18 04:37:31;;;;;;;8.90;4.90;;;22.10;95.20;;;;;;4785020;30;20059;-80
2022/07/18 04:40:21;;;;;;;7.65;4.45;;;21.90;95.20;;;;;;4785078;30;20051;-83
2022/07/18 04:46:44;;;;;;;9.65;5.25;;;22.00;96.20;;;;;;5236368;24;20085;-86
2022/07/18 04:49:44;;;;;;;7.68;4.80;;;22.10;95.50;;;;;;4785019;30;20056;-86
2022/07/18 04:52:14;;;;;;;15.85;4.30;;;22.20;95.30;;;;;;4785198;30;20048;-84
2022/07/18 04:54:41;;;;;;;10.13;4.70;;;22.40;95.50;;;;;;4786263;29;20059;-84
2022/07/18 04:57:14;;;;;;;8.93;4.88;;;22.20;95.00;;;;;;4774859;30;20048;-84
2022/07/18 04:59:42;;;;;;;8.90;5.30;;;22.10;95.30;;;;;;4767236;30;20048;-86
2022/07/18 05:02:11;;;;;;;7.85;5.07;;;21.90;95.10;;;;;;4768785;30;20055;-80
2022/07/18 05:04:39;;;;;;;7.55;5.20;;;21.90;95.30;;;;;;4767079;30;20152;-83
2022/07/18 05:07:07;;;;;;;11.93;4.90;;;22.00;94.50;;;;;;4766633;30;20060;-82
2022/07/18 05:09:34;;;;;;;10.25;4.25;;;22.00;94.20;;;;;;4768035;30;20051;-82
2022/07/18 05:12:04;;;;;;;8.15;4.53;;;22.10;94.10;;;;;;4768756;30;20492;-77
2022/07/18 05:14:57;;;;;;;8.07;4.53;;;22.10;94.10;;;;;;4769584;30;20048;-82
2022/07/18 05:17:29;;;;;;;11.45;4.63;;;22.10;93.90;;;;;;4771037;30;20064;-79
2022/07/18 05:19:56;;;;;;;11.10;4.78;;;22.20;94.20;;;;;;4771078;30;20075;-84
2022/07/18 05:22:29;;;;;;;9.52;4.25;;;22.20;93.50;;;;;;4770167;30;20068;-83
2022/07/18 05:24:57;;;;;;;9.25;4.18;;;22.30;94.10;;;;;;4770829;30;20059;-84
2022/07/18 05:27:27;;;;;;;11.60;4.07;;;22.50;93.70;;;;;;4771562;30;20140;-86
2022/07/18 05:29:55;;;;;;;9.77;4.80;;;22.50;93.20;;;;;;4770015;30;20056;-87
2022/07/18 05:32:22;;;;;;;9.02;4.72;;;22.60;93.70;;;;;;4770087;30;20059;-82
2022/07/18 05:34:52;;;;;;;9.93;5.18;;;22.50;93.40;;;;;;4769827;30;20052;-83
2022/07/18 05:37:23;;;;;;;;;;;22.70;93.40;;;;;;4770421;30;20055;-82
2022/07/18 05:39:51;;;;;;;9.07;4.13;;;22.50;92.40;;;;;;4770553;30;19922;-83
2022/07/18 05:42:22;;;;;;;11.15;5.32;;;22.60;92.40;;;;;;4770366;30;20067;-83
2022/07/18 05:45:11;;;;;;;65.90;45.55;;;22.70;92.40;;;;;;4769514;30;20626;-81
2022/07/18 05:48:04;;;;;;;37.33;22.23;;;23.10;92.80;;;;;;4769382;30;20051;-80
2022/07/18 05:50:57;;;;;;;9.23;5.03;;;22.80;90.60;;;;;;4769456;30;20406;-85
2022/07/18 05:57:37;;;;;;;8.13;5.32;;;22.70;82.60;;;;;;4779878;24;20140;-82
2022/07/18 06:00:13;;;;;;;7.78;3.92;;;22.60;78.40;;;;;;4786588;30;20143;-83
2022/07/18 06:02:41;;;;;;;8.00;2.80;;;22.70;79.50;;;;;;4788490;29;20403;-81
2022/07/18 06:05:09;;;;;;;5.97;3.38;;;22.80;77.60;;;;;;4786984;30;20488;-84
2022/07/18 06:07:57;;;;;;;7.25;3.72;;;23.20;78.10;;;;;;4787397;29;20063;-83
2022/07/18 06:10:53;;;;;;;5.80;2.72;;;23.40;78.70;;;;;;4782825;30;20126;-85
2022/07/18 06:13:33;;;;;;;7.50;3.00;;;23.50;78.80;;;;;;4780870;29;20508;-80
2022/07/18 06:16:01;;;;;;;5.63;2.65;;;23.50;70.70;;;;;;4784118;29;20054;-83
2022/07/18 06:18:29;;;;;;;6.30;2.10;;;23.60;71.80;;;;;;4819508;29;20071;-81
2022/07/18 06:20:56;;;;;;;30.30;18.98;;;23.40;70.30;;;;;;4804527;29;20051;-80
2022/07/18 06:23:27;;;;;;;51.17;36.85;;;23.70;70.80;;;;;;4803570;29;20063;-81
2022/07/18 06:25:56;;;;;;;12.20;6.35;;;24.00;70.90;;;;;;4810165;29;20444;-82
2022/07/18 06:28:25;;;;;;;5.40;2.92;;;23.80;67.50;;;;;;4787677;29;20485;-83
2022/07/18 06:30:56;;;;;;;6.47;3.00;;;23.60;68.30;;;;;;4787701;29;20101;-82
2022/07/18 06:33:24;;;;;;;274.08;254.95;;;23.60;66.70;;;;;;4787396;29;20047;-79
2022/07/18 06:35:51;;;;;;;4.05;2.60;;;23.80;67.30;;;;;;4801445;29;20108;-81
2022/07/18 06:38:24;;;;;;;10.13;2.45;;;23.90;65.20;;;;;;4787274;30;20062;-78
2022/07/18 06:40:54;;;;;;;7.85;2.53;;;23.80;66.30;;;;;;4787343;29;20047;-82
2022/07/18 06:43:31;;;;;;;5.15;2.80;;;24.00;66.60;;;;;;4787715;29;20428;-78
2022/07/18 06:46:26;;;;;;;8.43;2.67;;;24.10;64.70;;;;;;4787519;29;20051;-82
2022/07/18 06:49:15;;;;;;;8.50;2.97;;;23.90;64.40;;;;;;4792331;29;20047;-82
2022/07/18 06:51:42;;;;;;;3.78;2.15;;;23.80;64.50;;;;;;4786479;30;20160;-79
2022/07/18 06:54:12;;;;;;;5.95;2.47;;;24.00;63.40;;;;;;4787028;29;20054;-83
2022/07/18 06:56:40;;;;;;;4.00;2.05;;;24.20;64.40;;;;;;4777383;30;20150;-83
2022/07/18 06:59:24;;;;;;;6.18;2.45;;;24.10;62.80;;;;;;4768825;30;20083;-79
2022/07/18 07:01:52;;;;;;;5.38;2.10;;;24.10;63.60;;;;;;4768173;30;20056;-79
2022/07/18 07:04:19;;;;;;;6.57;2.40;;;24.20;62.90;;;;;;4768121;30;20056;-84
2022/07/18 07:06:47;;;;;;;6.93;2.85;;;24.30;61.10;;;;;;4768076;30;20090;-84
2022/07/18 07:09:14;;;;;;;7.32;2.00;;;24.30;62.50;;;;;;4768557;30;20116;-83
2022/07/18 07:11:41;;;;;;;510.80;472.63;;;24.20;59.10;;;;;;4769633;30;20060;-84
2022/07/18 07:14:09;;;;;;;5.35;2.55;;;24.30;60.00;;;;;;4769657;30;20127;-83
2022/07/18 07:16:36;;;;;;;660.67;611.88;;;24.30;60.80;;;;;;4769293;30;20067;-87
2022/07/18 07:19:04;;;;;;;610.83;564.10;;;24.30;59.80;;;;;;4768814;30;20056;-82
2022/07/18 07:21:31;;;;;;;4.35;2.22;;;24.50;61.70;;;;;;4767784;30;20056;-82
2022/07/18 07:23:59;;;;;;;4.80;2.40;;;24.80;62.20;;;;;;4768806;30;20484;-79
2022/07/18 07:26:26;;;;;;;3.03;1.73;;;24.80;62.30;;;;;;4768156;30;20442;-82
2022/07/18 07:28:54;;;;;;;3.97;1.90;;;24.70;59.40;;;;;;4782483;29;20143;-77
2022/07/18 07:31:24;;;;;;;2.92;1.60;;;24.40;59.70;;;;;;4768662;30;20062;-81
2022/07/18 07:33:51;;;;;;;5.30;1.90;;;24.30;59.70;;;;;;4767464;30;20452;-85
2022/07/18 07:36:21;;;;;;;4.60;1.95;;;24.40;59.40;;;;;;4767959;30;20402;-80
2022/07/18 07:38:52;;;;;;;4.28;2.03;;;24.50;59.50;;;;;;4769026;30;20500;-82
2022/07/18 07:41:19;;;;;;;4.88;2.33;;;24.70;59.30;;;;;;4767782;30;20505;-85
2022/07/18 07:43:46;;;;;;;7.47;2.30;;;25.00;60.00;;;;;;4764735;30;20087;-78
2022/07/18 07:46:14;;;;;;;6.10;2.30;;;25.00;60.00;;;;;;4750126;30;20456;-80
2022/07/18 07:48:43;;;;;;;3.67;2.38;;;25.00;58.40;;;;;;4764511;30;20500;-82
2022/07/18 07:51:10;;;;;;;7.47;4.72;;;24.80;57.40;;;;;;4767405;30;20063;-82
2022/07/18 07:53:38;;;;;;;6.03;3.08;;;24.80;55.70;;;;;;4768638;30;20062;-82
2022/07/18 07:56:05;;;;;;;7.65;5.20;;;24.80;55.60;;;;;;4767447;30;20063;-82
2022/07/18 07:58:33;;;;;;;3.00;1.80;;;24.70;55.10;;;;;;4767111;30;20060;-81
2022/07/18 08:01:00;;;;;;;2.42;1.65;;;24.70;54.30;;;;;;4768463;30;20511;-84
2022/07/18 08:03:27;;;;;;;3.10;1.48;;;24.70;54.10;;;;;;4768494;30;20132;-81
2022/07/18 08:06:24;;;;;;;2.85;2.03;;;24.80;55.10;;;;;;4768393;30;20052;-84
2022/07/18 08:08:51;;;;;;;3.20;1.92;;;24.90;54.00;;;;;;4766966;30;20060;-79
2022/07/18 08:11:25;;;;;;;3.00;1.67;;;24.90;53.90;;;;;;4753512;30;20069;-78
2022/07/18 08:13:54;;;;;;;2.90;1.58;;;24.80;54.00;;;;;;4766879;30;20063;-81
2022/07/18 08:16:24;;;;;;;5.30;1.60;;;24.90;54.20;;;;;;4767284;30;20122;-83
2022/07/18 08:18:52;;;;;;;2.72;1.40;;;25.10;54.70;;;;;;4768217;30;20048;-80
2022/07/18 08:21:19;;;;;;;4.82;1.88;;;25.20;56.60;;;;;;4767494;30;20087;-81
2022/07/18 08:23:48;;;;;;;3.28;2.05;;;25.30;55.20;;;;;;4781987;30;20067;-80
2022/07/18 08:26:15;;;;;;;4.25;1.88;;;25.30;54.30;;;;;;4767466;30;20059;-82
2022/07/18 08:28:43;;;;;;;6.68;1.90;;;25.50;55.20;;;;;;4767366;30;20052;-79
2022/07/18 08:31:12;;;;;;;6.32;1.95;;;25.30;55.10;;;;;;4781828;30;20067;-81
2022/07/18 08:34:44;;;;;;;3.88;1.95;;;25.30;55.30;;;;;;4774533;30;20062;-79
2022/07/18 08:37:12;;;;;;;2.85;1.50;;;25.30;53.60;;;;;;4765780;30;20063;-81
2022/07/18 08:39:42;;;;;;;2.72;1.55;;;25.10;53.00;;;;;;4767766;30;20070;-81
2022/07/18 08:42:35;;;;;;;5.65;1.90;;;25.20;53.00;;;;;;4753567;30;20064;-80
2022/07/18 08:49:07;;;;;;;3.15;1.40;;;25.00;54.30;;;;;;4766590;30;20075;-79
2022/07/18 08:52:16;;;;;;;6.10;1.50;;;25.20;53.10;;;;;;4760100;30;20123;-79
2022/07/18 08:55:36;;;;;;;3.85;1.50;;;25.30;54.10;;;;;;4771194;30;20210;-79
2022/07/18 08:58:20;;;;;;;3.80;1.60;;;25.20;53.40;;;;;;4772479;30;20103;-81
2022/07/18 09:01:09;;;;;;;9.15;1.50;;;25.10;52.40;;;;;;4861976;24;20040;-82
2022/07/18 09:04:14;;;;;;;70.68;46.53;;;25.20;53.40;;;;;;4795493;29;20050;-81
2022/07/18 09:06:47;;;;;;;23.92;16.90;;;25.30;53.20;;;;;;4790254;29;20055;-80
2022/07/18 09:13:06;;;;;;;9.45;3.20;;;25.90;53.60;;;;;;4795598;29;20031;-79
2022/07/18 09:15:34;;;;;;;4.18;2.05;;;26.00;51.90;;;;;;4780383;29;20369;-81
2022/07/18 09:18:15;;;;;;;4.53;1.63;;;26.20;52.40;;;;;;4796209;29;20073;-79
2022/07/18 09:21:09;;;;;;;3.72;1.80;;;26.20;52.00;;;;;;4793542;29;20074;-81
2022/07/18 09:23:40;;;;;;;7.13;2.10;;;26.40;52.20;;;;;;4787837;30;20442;-82
2022/07/18 09:26:09;;;;;;;2.90;1.70;;;26.80;52.90;;;;;;4787864;30;20047;-80
2022/07/18 09:28:54;;;;;;;8.38;2.03;;;26.60;51.50;;;;;;4787226;29;20146;-80
2022/07/18 09:31:52;;;;;;;2.70;1.85;;;26.70;52.70;;;;;;4787862;30;20492;-80
2022/07/18 09:34:37;;;;;;;3.15;1.73;;;27.00;52.10;;;;;;4788415;29;20454;-80
2022/07/18 09:37:11;;;;;;;4.25;1.90;;;27.00;49.80;;;;;;4789603;29;20039;-80
2022/07/18 09:40:16;;;;;;;3.50;1.88;;;26.80;51.50;;;;;;4795136;29;20491;-80
2022/07/18 09:42:54;;;;;;;3.22;1.48;;;26.70;50.30;;;;;;4769715;29;20136;-79
2022/07/18 09:45:36;;;;;;;5.18;2.60;;;26.90;51.00;;;;;;4787734;30;20142;-79
2022/07/18 09:48:36;;;;;;;4.85;1.88;;;27.00;51.40;;;;;;4788164;29;20054;-82
2022/07/18 09:51:06;;;;;;;1.90;1.50;;;27.40;50.70;;;;;;4732972;30;20459;-82
2022/07/18 09:53:36;;;;;;;4.07;1.83;;;27.60;51.30;;;;;;4751989;30;20400;-83
2022/07/18 09:56:06;;;;;;;3.72;1.80;;;27.80;51.80;;;;;;4783118;30;20056;-81
2022/07/18 09:58:50;;;;;;;4.18;2.00;;;27.70;50.10;;;;;;4754387;30;20065;-81
2022/07/18 10:01:42;;;;;;;3.75;1.60;;;27.60;51.20;;;;;;4771192;29;20559;-80
2022/07/18 10:08:26;;;;;;;3.75;1.60;;;27.80;49.10;;;;;;4817179;24;20051;-80
2022/07/18 10:10:56;;;;;;;3.08;1.40;;;28.10;50.10;;;;;;4786327;30;20063;-82
2022/07/18 10:13:34;;;;;;;3.38;2.05;;;28.30;49.60;;;;;;4771476;30;20055;-80
2022/07/18 10:18:52;;;;;;;3.05;1.45;;;27.90;48.80;;;;;;4786059;30;20062;-83
2022/07/18 10:22:06;;;;;;;2.05;1.13;;;28.00;48.30;;;;;;4752281;30;20047;-79
2022/07/18 10:25:01;;;;;;;3.25;1.75;;;28.40;49.00;;;;;;4771729;30;20512;-80
2022/07/18 10:27:48;;;;;;;2.88;1.55;;;27.80;48.30;;;;;;4770925;30;20051;-81
2022/07/18 10:30:16;;;;;;;2.55;1.38;;;28.20;49.00;;;;;;4770661;30;20063;-81
2022/07/18 10:32:44;;;;;;;2.55;1.42;;;28.60;47.50;;;;;;4771072;30;20087;-82
2022/07/18 10:40:08;;;;;;;12.57;1.80;;;28.70;46.00;;;;;;4751668;30;20481;-83
2022/07/18 10:43:37;;;;;;;5.43;2.55;;;28.60;46.20;;;;;;4740315;30;20056;-82
2022/07/18 10:46:48;;;;;;;4.82;1.70;;;28.70;48.90;;;;;;4751396;30;20130;-80
2022/07/18 10:49:49;;;;;;;3.95;1.75;;;27.70;47.20;;;;;;4758547;30;20413;-82
2022/07/18 10:52:35;;;;;;;4.00;1.67;;;28.00;48.00;;;;;;4757732;30;20078;-83
2022/07/18 10:59:28;;;;;;;8.85;1.70;;;28.60;49.00;;;;;;4774076;30;20045;-85
2022/07/18 11:01:58;;;;;;;7.50;1.50;;;29.00;49.40;;;;;;4745976;30;20061;-81
2022/07/18 11:04:33;;;;;;;5.00;2.20;;;29.10;47.50;;;;;;4776038;30;20047;-80
2022/07/18 11:07:09;;;;;;;42.05;29.08;;;28.40;46.50;;;;;;4736163;30;1254220;-82
2022/07/18 11:09:48;;;;;;;18.85;13.63;;;28.90;47.10;;;;;;4785554;29;20063;-80
2022/07/18 11:12:28;;;;;;;4.82;2.70;;;29.00;48.60;;;;;;4783573;29;20051;-79
2022/07/18 11:15:15;;;;;;;2.78;1.27;;;29.10;48.40;;;;;;4780374;30;20072;-80
2022/07/18 11:18:03;;;;;;;2.78;1.27;;;28.40;49.50;;;;;;4791109;29;20507;-79
2022/07/18 11:20:38;;;;;;;4.85;2.28;;;28.70;49.60;;;;;;4774181;30;20063;-79
2022/07/18 11:23:21;;;;;;;12.55;2.50;;;28.60;50.20;;;;;;4772672;30;20098;-80
2022/07/18 11:25:51;;;;;;;325.80;301.30;;;28.70;50.60;;;;;;4773942;30;20051;-79
2022/07/18 11:28:29;;;;;;;4.68;1.73;;;28.90;49.00;;;;;;4774359;30;20117;-80
2022/07/18 11:31:13;;;;;;;3.33;1.85;;;29.30;50.60;;;;;;4776457;30;20168;-78
2022/07/18 11:33:48;;;;;;;2.38;1.40;;;29.20;49.70;;;;;;4761587;30;20092;-78
2022/07/18 11:36:18;;;;;;;3.40;1.27;;;29.50;51.20;;;;;;4775809;30;20444;-82
2022/07/18 11:39:02;;;;;;;3.88;1.40;;;29.00;49.70;;;;;;4774710;30;20054;-79
2022/07/18 11:41:31;;;;;;;4.38;1.60;;;29.10;49.90;;;;;;4774856;30;20062;-78
2022/07/18 11:43:59;;;;;;;6.03;1.63;;;29.40;50.10;;;;;;4775131;30;20051;-80
2022/07/18 11:46:30;;;;;;;4.25;1.60;;;29.60;49.60;;;;;;4774618;30;20056;-79
2022/07/18 11:49:03;;;;;;;5.38;1.98;;;29.60;50.40;;;;;;4777083;30;20406;-85
2022/07/18 11:51:45;;;;;;;5.55;2.20;;;29.30;49.30;;;;;;4771332;30;20450;-85
2022/07/18 11:54:25;;;;;;;7.53;2.00;;;29.20;52.30;;;;;;4776752;30;20505;-82
2022/07/18 11:56:56;;;;;;;3.88;1.70;;;29.70;52.00;;;;;;4761737;30;20153;-81
2022/07/18 11:59:38;;;;;;;4.50;1.73;;;30.10;50.50;;;;;;4774919;30;20389;-81
2022/07/18 12:02:07;;;;;;;5.53;1.80;;;30.60;50.20;;;;;;4776403;30;20075;-80
2022/07/18 12:04:35;;;;;;;7.05;1.80;;;30.00;49.90;;;;;;4774458;30;20061;-82
2022/07/18 12:07:22;;;;;;;;;;;30.00;48.70;;;;;;4775113;30;20055;-81
2022/07/18 12:09:56;;;;;;;10.25;5.32;;;30.00;49.60;;;;;;4773304;30;20433;-82
2022/07/18 12:12:24;;;;;;;7.13;3.08;;;30.20;50.00;;;;;;4789613;29;20447;-80
2022/07/18 12:14:59;;;;;;;9.57;6.35;;;30.30;50.70;;;;;;4775213;30;20048;-80
2022/07/18 12:17:28;;;;;;;5.30;2.85;;;30.30;49.10;;;;;;4790529;29;20067;-79
2022/07/18 12:20:15;;;;;;;4.23;2.10;;;30.00;49.70;;;;;;4776439;30;20055;-80
2022/07/18 12:23:07;;;;;;;4.82;2.00;;;30.10;50.40;;;;;;4781989;24;20052;-81
2022/07/18 12:25:42;;;;;;;3.13;1.85;;;30.00;49.40;;;;;;4786790;30;20087;-79
2022/07/18 12:28:26;;;;;;;5.88;1.60;;;30.00;49.90;;;;;;4782608;30;20056;-81
2022/07/18 12:30:56;;;;;;;5.88;1.95;;;29.90;48.30;;;;;;4765745;30;20051;-79
2022/07/18 12:34:09;;;;;;;5.47;1.85;;;29.80;49.90;;;;;;4766714;30;20055;-80
2022/07/18 12:36:57;;;;;;;3.37;1.60;;;30.10;49.60;;;;;;4778048;30;20403;-83
2022/07/18 12:39:37;;;;;;;4.65;1.92;;;30.40;49.60;;;;;;4761733;30;20059;-81
2022/07/18 12:42:48;;;;;;;3.00;1.60;;;30.40;49.30;;;;;;4770916;30;20201;-87
2022/07/18 12:45:18;;;;;;;;;;;31.00;50.10;;;;;;4778983;30;20056;-88
2022/07/18 12:47:56;;;;;;;4.70;1.70;;;31.00;49.20;;;;;;4789534;30;19921;-87
2022/07/18 12:50:23;;;;;;;5.03;1.80;;;31.20;49.20;;;;;;4774818;30;20074;-87
2022/07/18 12:52:51;;;;;;;3.35;1.38;;;30.70;49.20;;;;;;4786524;30;20079;-87
2022/07/18 12:55:19;;;;;;;2.30;1.33;;;30.40;49.80;;;;;;4772920;30;20065;-91
2022/07/18 12:58:05;;;;;;;7.05;1.55;;;30.70;49.80;;;;;;4759269;30;20048;-89
2022/07/18 13:00:33;;;;;;;5.40;1.50;;;30.70;48.70;;;;;;4764043;30;20128;-83
2022/07/18 13:03:01;;;;;;;6.18;2.15;;;30.90;51.90;;;;;;4772007;30;20067;-89
2022/07/18 13:05:33;;;;;;;9.85;1.85;;;31.20;49.50;;;;;;4737283;30;20146;-88
2022/07/18 13:08:01;;;;;;;6.80;2.30;;;31.00;49.00;;;;;;4739647;30;20161;-86
2022/07/18 13:10:28;;;;;;;3.08;1.38;;;31.00;49.40;;;;;;4771577;30;20497;-84
2022/07/18 13:12:56;;;;;;;5.75;1.80;;;31.20;49.60;;;;;;4767000;30;20062;-85
2022/07/18 13:15:28;;;;;;;4.13;1.90;;;31.50;48.70;;;;;;4752710;30;20518;-85
2022/07/18 13:18:31;;;;;;;5.03;1.70;;;31.70;49.50;;;;;;4767834;30;20653;-87
2022/07/18 13:21:18;;;;;;;2.90;1.48;;;31.40;49.20;;;;;;4754886;30;20056;-84
2022/07/18 13:23:55;;;;;;;4.40;1.50;;;31.20;49.80;;;;;;4770097;30;20051;-84
2022/07/18 13:26:23;;;;;;;4.72;1.95;;;31.10;49.50;;;;;;4771018;30;20146;-82
2022/07/18 13:28:50;;;;;;;8.07;2.60;;;31.10;49.60;;;;;;4762225;30;20420;-87
2022/07/18 13:31:17;;;;;;;4.38;2.22;;;31.30;50.90;;;;;;4760173;30;20058;-85
2022/07/18 13:34:04;;;;;;;4.95;2.00;;;31.40;49.10;;;;;;4760035;30;20055;-87
2022/07/18 13:37:14;;;;;;;3.42;1.77;;;31.60;49.20;;;;;;4757161;30;20102;-84
2022/07/18 13:39:41;;;;;;;3.72;2.08;;;31.40;50.80;;;;;;4754984;30;20493;-85
2022/07/18 13:42:09;;;;;;;3.08;1.70;;;31.60;49.90;;;;;;4756589;30;20068;-84
2022/07/18 13:44:38;;;;;;;;;;;31.90;49.70;;;;;;4748982;30;20061;-84
2022/07/18 13:47:06;;;;;;;4.43;1.77;;;31.80;48.30;;;;;;4749239;30;19974;-83
2022/07/18 13:49:33;;;;;;;8.52;4.65;;;31.80;48.80;;;;;;4735027;30;20061;-83
2022/07/18 13:52:33;;;;;;;14.73;9.40;;;31.80;49.00;;;;;;4733860;30;20280;-82
2022/07/18 13:55:01;;;;;;;10.25;5.72;;;31.70;48.40;;;;;;4754601;30;20063;-82
2022/07/18 13:57:29;;;;;;;5.75;2.40;;;31.40;50.00;;;;;;4757813;30;20405;-81
2022/07/18 13:59:56;;;;;;;4.95;1.92;;;31.40;48.90;;;;;;4754667;30;20122;-87
2022/07/18 14:02:24;;;;;;;7.10;2.15;;;31.20;47.80;;;;;;4759105;30;20564;-83
2022/07/18 14:04:51;;;;;;;5.95;2.40;;;30.90;49.20;;;;;;4761139;30;20138;-84
2022/07/18 14:07:41;;;;;;;6.38;2.58;;;31.00;49.60;;;;;;4755217;30;20052;-82
2022/07/18 14:10:12;;;;;;;5.28;2.00;;;31.00;49.90;;;;;;4759255;30;20060;-81
2022/07/18 14:12:40;;;;;;;4.90;1.80;;;31.10;49.30;;;;;;4752918;30;20155;-85
2022/07/18 14:15:09;;;;;;;4.68;1.92;;;31.50;48.20;;;;;;4756377;30;20083;-84
2022/07/18 14:17:37;;;;;;;5.50;1.52;;;31.70;48.60;;;;;;4760507;30;20420;-83
2022/07/18 14:20:17;;;;;;;2.92;1.40;;;31.90;49.40;;;;;;4758641;30;20051;-88
2022/07/18 14:22:48;;;;;;;5.03;3.15;;;31.80;49.30;;;;;;4759639;30;20505;-85
2022/07/18 14:25:17;;;;;;;237.82;222.93;;;31.40;46.50;;;;;;4759138;30;20055;-84
2022/07/18 14:27:45;;;;;;;4.32;1.83;;;31.00;45.90;;;;;;4760192;30;20066;-82
2022/07/18 14:30:15;;;;;;;3.55;1.70;;;31.40;49.90;;;;;;4758651;30;20060;-83
2022/07/18 14:32:56;;;;;;;3.15;1.65;;;31.90;49.80;;;;;;4758072;30;20144;-82
2022/07/18 14:35:26;;;;;;;3.60;1.83;;;32.40;48.80;;;;;;4758143;30;20064;-81
2022/07/18 14:37:54;;;;;;;3.50;1.85;;;32.20;47.40;;;;;;4760353;30;20561;-83
2022/07/18 14:40:25;;;;;;;5.78;2.15;;;32.10;48.60;;;;;;4759906;30;20063;-80
2022/07/18 14:45:54;;;;;;;4.72;1.73;;;31.70;47.50;;;;;;4759129;30;20044;-79
2022/07/18 14:48:30;;;;;;;4.50;1.70;;;31.80;48.00;;;;;;4755045;30;20163;-88